sensor_id;sensor_type;location;lat;lon;timestamp;pressure;altitude;pressure_sealevel;temperature
26158;BMP280;67284;44.782;10.282;2023-04-30T00:04:25;100857.47;;;16.71
26158;BMP280;67284;44.782;10.282;2023-04-30T00:09:16;100853.09;;;16.72
26158;BMP280;67284;44.782;10.282;2023-04-30T00:14:08;100855.72;;;16.72
26158;BMP280;67284;44.782;10.282;2023-04-30T00:19:01;100844.47;;;16.71
26158;BMP280;67284;44.782;10.282;2023-04-30T00:23:52;100844.47;;;16.71
26158;BMP280;67284;44.782;10.282;2023-04-30T00:28:44;100840.16;;;16.70
26158;BMP280;67284;44.782;10.282;2023-04-30T00:33:36;100831.63;;;16.67
26158;BMP280;67284;44.782;10.282;2023-04-30T00:38:28;100835.97;;;16.67
26158;BMP280;67284;44.782;10.282;2023-04-30T00:43:20;100836.88;;;16.66
26158;BMP280;67284;44.782;10.282;2023-04-30T00:48:11;100824.00;;;16.63
26158;BMP280;67284;44.782;10.282;2023-04-30T00:53:03;100837.00;;;16.63
26158;BMP280;67284;44.782;10.282;2023-04-30T00:57:55;100825.78;;;16.61
26158;BMP280;67284;44.782;10.282;2023-04-30T01:02:48;100822.34;;;16.60
26158;BMP280;67284;44.782;10.282;2023-04-30T01:07:40;100812.06;;;16.57
26158;BMP280;67284;44.782;10.282;2023-04-30T01:17:42;100824.22;;;16.55
26158;BMP280;67284;44.782;10.282;2023-04-30T01:22:50;100828.59;;;16.55
26158;BMP280;67284;44.782;10.282;2023-04-30T01:28:14;100826.91;;;16.52
26158;BMP280;67284;44.782;10.282;2023-04-30T01:33:07;100828.78;;;16.49
26158;BMP280;67284;44.782;10.282;2023-04-30T01:43:39;100831.44;;;16.46
26158;BMP280;67284;44.782;10.282;2023-04-30T01:54:02;100843.66;;;16.44
26158;BMP280;67284;44.782;10.282;2023-04-30T01:58:55;100838.44;;;16.44
26158;BMP280;67284;44.782;10.282;2023-04-30T02:03:47;100828.94;;;16.43
26158;BMP280;67284;44.782;10.282;2023-04-30T02:08:39;100824.69;;;16.42
26158;BMP280;67284;44.782;10.282;2023-04-30T02:13:31;100837.72;;;16.40
26158;BMP280;67284;44.782;10.282;2023-04-30T02:18:23;100835.13;;;16.40
26158;BMP280;67284;44.782;10.282;2023-04-30T02:23:15;100837.78;;;16.37
26158;BMP280;67284;44.782;10.282;2023-04-30T02:28:07;100843.84;;;16.38
26158;BMP280;67284;44.782;10.282;2023-04-30T02:32:58;100841.25;;;16.38
26158;BMP280;67284;44.782;10.282;2023-04-30T02:37:51;100844.72;;;16.37
26158;BMP280;67284;44.782;10.282;2023-04-30T02:42:42;100851.69;;;16.36
26158;BMP280;67284;44.782;10.282;2023-04-30T02:47:34;100844.72;;;16.37
26158;BMP280;67284;44.782;10.282;2023-04-30T02:52:26;100838.66;;;16.38
26158;BMP280;67284;44.782;10.282;2023-04-30T02:57:18;100846.50;;;16.36
26158;BMP280;67284;44.782;10.282;2023-04-30T03:02:10;100841.28;;;16.36
26158;BMP280;67284;44.782;10.282;2023-04-30T03:07:04;100849.13;;;16.35
26158;BMP280;67284;44.782;10.282;2023-04-30T03:11:58;100839.69;;;16.32
26158;BMP280;67284;44.782;10.282;2023-04-30T03:16:50;100838.84;;;16.32
26158;BMP280;67284;44.782;10.282;2023-04-30T03:21:42;100849.25;;;16.30
26158;BMP280;67284;44.782;10.282;2023-04-30T03:26:34;100839.72;;;16.31
26158;BMP280;67284;44.782;10.282;2023-04-30T03:31:25;100845.81;;;16.30
26158;BMP280;67284;44.782;10.282;2023-04-30T03:36:17;100839.88;;;16.26
26158;BMP280;67284;44.782;10.282;2023-04-30T03:41:09;100842.53;;;16.25
26158;BMP280;67284;44.782;10.282;2023-04-30T03:46:01;100850.38;;;16.23
26158;BMP280;67284;44.782;10.282;2023-04-30T03:50:53;100844.25;;;16.23
26158;BMP280;67284;44.782;10.282;2023-04-30T03:55:45;100841.88;;;16.17
26158;BMP280;67284;44.782;10.282;2023-04-30T04:00:39;100849.66;;;16.17
26158;BMP280;67284;44.782;10.282;2023-04-30T04:05:32;100854.84;;;16.17
26158;BMP280;67284;44.782;10.282;2023-04-30T04:10:24;100863.41;;;16.19
26158;BMP280;67284;44.782;10.282;2023-04-30T04:15:16;100866.03;;;16.19
26158;BMP280;67284;44.782;10.282;2023-04-30T04:20:08;100872.97;;;16.18
26158;BMP280;67284;44.782;10.282;2023-04-30T04:25:05;100877.31;;;16.18
26158;BMP280;67284;44.782;10.282;2023-04-30T04:30:00;100881.66;;;16.17
26158;BMP280;67284;44.782;10.282;2023-04-30T04:34:52;100891.19;;;16.17
26158;BMP280;67284;44.782;10.282;2023-04-30T04:39:45;100902.41;;;16.17
26158;BMP280;67284;44.782;10.282;2023-04-30T04:44:37;100904.97;;;16.19
26158;BMP280;67284;44.782;10.282;2023-04-30T04:49:29;100913.66;;;16.18
26158;BMP280;67284;44.782;10.282;2023-04-30T04:54:21;100911.13;;;16.16
26158;BMP280;67284;44.782;10.282;2023-04-30T04:59:12;100909.44;;;16.14
26158;BMP280;67284;44.782;10.282;2023-04-30T05:04:04;100921.59;;;16.12
26158;BMP280;67284;44.782;10.282;2023-04-30T05:08:56;100920.03;;;16.08
26158;BMP280;67284;44.782;10.282;2023-04-30T05:13:48;100926.09;;;16.07
26158;BMP280;67284;44.782;10.282;2023-04-30T05:18:40;100918.44;;;16.03
26158;BMP280;67284;44.782;10.282;2023-04-30T05:23:32;100920.22;;;16.01
26158;BMP280;67284;44.782;10.282;2023-04-30T05:28:24;100928.88;;;16.01
26158;BMP280;67284;44.782;10.282;2023-04-30T05:33:16;100931.47;;;16.01
26158;BMP280;67284;44.782;10.282;2023-04-30T05:38:07;100936.72;;;15.98
26158;BMP280;67284;44.782;10.282;2023-04-30T05:42:59;100937.59;;;15.99
26158;BMP280;67284;44.782;10.282;2023-04-30T05:47:51;100935.88;;;15.98
26158;BMP280;67284;44.782;10.282;2023-04-30T05:52:43;100939.34;;;15.97
26158;BMP280;67284;44.782;10.282;2023-04-30T05:57:35;100935.13;;;15.94
26158;BMP280;67284;44.782;10.282;2023-04-30T06:02:27;100934.31;;;15.92
26158;BMP280;67284;44.782;10.282;2023-04-30T06:07:19;100931.63;;;15.95
26158;BMP280;67284;44.782;10.282;2023-04-30T06:12:11;100928.97;;;15.97
26158;BMP280;67284;44.782;10.282;2023-04-30T06:17:03;100926.34;;;15.98
26158;BMP280;67284;44.782;10.282;2023-04-30T06:21:55;100933.25;;;15.99
26158;BMP280;67284;44.782;10.282;2023-04-30T06:26:46;100922.84;;;15.99
26158;BMP280;67284;44.782;10.282;2023-04-30T06:31:38;100928.00;;;16.01
26158;BMP280;67284;44.782;10.282;2023-04-30T06:36:30;100921.09;;;16.01
26158;BMP280;67284;44.782;10.282;2023-04-30T06:41:22;100928.88;;;16.01
26158;BMP280;67284;44.782;10.282;2023-04-30T06:46:14;100932.34;;;16.00
26158;BMP280;67284;44.782;10.282;2023-04-30T06:51:07;100930.59;;;16.01
26158;BMP280;67284;44.782;10.282;2023-04-30T06:56:01;100932.22;;;16.05
26158;BMP280;67284;44.782;10.282;2023-04-30T07:00:54;100939.91;;;16.08
26158;BMP280;67284;44.782;10.282;2023-04-30T07:05:46;100944.19;;;16.10
26158;BMP280;67284;44.782;10.282;2023-04-30T07:10:38;100946.78;;;16.10
26158;BMP280;67284;44.782;10.282;2023-04-30T07:15:30;100945.88;;;16.11
26158;BMP280;67284;44.782;10.282;2023-04-30T07:20:22;100938.84;;;16.14
26158;BMP280;67284;44.782;10.282;2023-04-30T07:25:14;100944.72;;;16.21
26158;BMP280;67284;44.782;10.282;2023-04-30T07:30:07;100937.78;;;16.21
26158;BMP280;67284;44.782;10.282;2023-04-30T07:35:02;100936.84;;;16.25
26158;BMP280;67284;44.782;10.282;2023-04-30T07:39:54;100946.34;;;16.26
26158;BMP280;67284;44.782;10.282;2023-04-30T07:44:47;100944.47;;;16.30
26158;BMP280;67284;44.782;10.282;2023-04-30T07:49:39;100946.09;;;16.34
26158;BMP280;67284;44.782;10.282;2023-04-30T07:54:31;100940.91;;;16.34
26158;BMP280;67284;44.782;10.282;2023-04-30T07:59:26;100941.63;;;16.39
26158;BMP280;67284;44.782;10.282;2023-04-30T08:04:18;100939.78;;;16.42
26158;BMP280;67284;44.782;10.282;2023-04-30T08:09:10;100947.44;;;16.47
26158;BMP280;67284;44.782;10.282;2023-04-30T08:14:02;100945.72;;;16.46
26158;BMP280;67284;44.782;10.282;2023-04-30T08:18:55;100947.25;;;16.53
26158;BMP280;67284;44.782;10.282;2023-04-30T08:23:47;100937.59;;;16.58
26158;BMP280;67284;44.782;10.282;2023-04-30T08:28:39;100939.25;;;16.60
26158;BMP280;67284;44.782;10.282;2023-04-30T08:33:31;100939.25;;;16.60
26158;BMP280;67284;44.782;10.282;2023-04-30T08:38:22;100943.41;;;16.66
26158;BMP280;67284;44.782;10.282;2023-04-30T08:43:16;100945.97;;;16.67
26158;BMP280;67284;44.782;10.282;2023-04-30T08:48:09;100946.69;;;16.70
26158;BMP280;67284;44.782;10.282;2023-04-30T08:53:03;100952.38;;;16.83
26158;BMP280;67284;44.782;10.282;2023-04-30T08:57:55;100940.09;;;16.88
26158;BMP280;67284;44.782;10.282;2023-04-30T09:02:47;100952.06;;;16.92
26158;BMP280;67284;44.782;10.282;2023-04-30T09:07:44;100947.44;;;17.01
26158;BMP280;67284;44.782;10.282;2023-04-30T09:12:40;100948.91;;;17.10
26158;BMP280;67284;44.782;10.282;2023-04-30T09:17:34;100944.41;;;17.15
26158;BMP280;67284;44.782;10.282;2023-04-30T09:22:26;100945.09;;;17.19
26158;BMP280;67284;44.782;10.282;2023-04-30T09:27:20;100939.09;;;17.18
26158;BMP280;67284;44.782;10.282;2023-04-30T09:32:13;100946.97;;;17.16
26158;BMP280;67284;44.782;10.282;2023-04-30T09:37:05;100944.91;;;17.27
26158;BMP280;67284;44.782;10.282;2023-04-30T09:42:08;100951.53;;;17.35
26158;BMP280;67284;44.782;10.282;2023-04-30T09:47:01;100944.41;;;17.40
26158;BMP280;67284;44.782;10.282;2023-04-30T09:51:58;100952.81;;;17.48
26158;BMP280;67284;44.782;10.282;2023-04-30T09:56:52;100946.97;;;17.42
26158;BMP280;67284;44.782;10.282;2023-04-30T10:01:44;100949.50;;;17.43
26158;BMP280;67284;44.782;10.282;2023-04-30T10:06:37;100955.53;;;17.45
26158;BMP280;67284;44.782;10.282;2023-04-30T10:11:31;100939.94;;;17.45
26158;BMP280;67284;44.782;10.282;2023-04-30T10:16:33;100942.53;;;17.45
26158;BMP280;67284;44.782;10.282;2023-04-30T10:21:26;100937.50;;;17.41
26158;BMP280;67284;44.782;10.282;2023-04-30T10:26:19;100938.28;;;17.43
26158;BMP280;67284;44.782;10.282;2023-04-30T10:31:11;100929.41;;;17.48
26158;BMP280;67284;44.782;10.282;2023-04-30T10:36:05;100935.63;;;17.44
26158;BMP280;67284;44.782;10.282;2023-04-30T10:41:00;100933.66;;;17.51
26158;BMP280;67284;44.782;10.282;2023-04-30T10:45:52;100919.91;;;17.47
26158;BMP280;67284;44.782;10.282;2023-04-30T10:50:44;100916.41;;;17.48
26158;BMP280;67284;44.782;10.282;2023-04-30T10:55:47;100901.53;;;17.52
26158;BMP280;67284;44.782;10.282;2023-04-30T11:00:50;100917.72;;;17.60
26158;BMP280;67284;44.782;10.282;2023-04-30T11:05:50;100905.63;;;17.59
26158;BMP280;67284;44.782;10.282;2023-04-30T11:10:57;100901.22;;;17.61
26158;BMP280;67284;44.782;10.282;2023-04-30T11:15:50;100896.84;;;17.61
26158;BMP280;67284;44.782;10.282;2023-04-30T11:20:49;100895.00;;;17.65
26158;BMP280;67284;44.782;10.282;2023-04-30T11:25:44;100890.44;;;17.71
26158;BMP280;67284;44.782;10.282;2023-04-30T11:30:37;100882.72;;;17.68
26158;BMP280;67284;44.782;10.282;2023-04-30T11:35:30;100888.94;;;17.64
26158;BMP280;67284;44.782;10.282;2023-04-30T11:40:22;100884.59;;;17.65
26158;BMP280;67284;44.782;10.282;2023-04-30T11:45:16;100893.19;;;17.67
26158;BMP280;67284;44.782;10.282;2023-04-30T11:50:16;100884.59;;;17.65
26158;BMP280;67284;44.782;10.282;2023-04-30T11:55:14;100879.44;;;17.63
26158;BMP280;67284;44.782;10.282;2023-04-30T12:00:09;100878.47;;;17.66
26158;BMP280;67284;44.782;10.282;2023-04-30T12:05:02;100868.13;;;17.64
26158;BMP280;67284;44.782;10.282;2023-04-30T12:09:54;100866.22;;;17.69
26158;BMP280;67284;44.782;10.282;2023-04-30T12:14:47;100860.06;;;17.72
26158;BMP280;67284;44.782;10.282;2023-04-30T12:19:39;100848.78;;;17.71
26158;BMP280;67284;44.782;10.282;2023-04-30T12:24:31;100854.84;;;17.72
26158;BMP280;67284;44.782;10.282;2023-04-30T12:29:23;100852.25;;;17.72
26158;BMP280;67284;44.782;10.282;2023-04-30T12:34:16;100848.00;;;17.69
26158;BMP280;67284;44.782;10.282;2023-04-30T12:44:24;100846.88;;;17.76
26158;BMP280;67284;44.782;10.282;2023-04-30T12:49:27;100844.41;;;17.73
26158;BMP280;67284;44.782;10.282;2023-04-30T12:54:29;100842.63;;;17.73
26158;BMP280;67284;44.782;10.282;2023-04-30T12:59:21;100834.13;;;17.69
26158;BMP280;67284;44.782;10.282;2023-04-30T13:04:13;100827.00;;;17.73
26158;BMP280;67284;44.782;10.282;2023-04-30T13:09:05;100832.22;;;17.73
26158;BMP280;67284;44.782;10.282;2023-04-30T13:13:57;100820.84;;;17.76
26158;BMP280;67284;44.782;10.282;2023-04-30T13:18:49;100816.38;;;17.79
26158;BMP280;67284;44.782;10.282;2023-04-30T13:23:40;100812.94;;;17.79
26158;BMP280;67284;44.782;10.282;2023-04-30T13:28:44;100811.16;;;17.79
26158;BMP280;67284;44.782;10.282;2023-04-30T13:33:36;100809.31;;;17.83
26158;BMP280;67284;44.782;10.282;2023-04-30T13:38:28;100796.28;;;17.83
26158;BMP280;67284;44.782;10.282;2023-04-30T13:43:20;100799.84;;;17.80
26158;BMP280;67284;44.782;10.282;2023-04-30T13:48:12;100784.13;;;17.83
26158;BMP280;67284;44.782;10.282;2023-04-30T13:53:04;100786.47;;;17.89
26158;BMP280;67284;44.782;10.282;2023-04-30T13:57:56;100779.59;;;17.88
26158;BMP280;67284;44.782;10.282;2023-04-30T14:02:48;100777.84;;;17.89
26158;BMP280;67284;44.782;10.282;2023-04-30T14:07:40;100782.22;;;17.88
26158;BMP280;67284;44.782;10.282;2023-04-30T14:12:32;100775.47;;;17.83
26158;BMP280;67284;44.782;10.282;2023-04-30T14:17:24;100771.94;;;17.84
26158;BMP280;67284;44.782;10.282;2023-04-30T14:22:20;100777.28;;;17.81
26158;BMP280;67284;44.782;10.282;2023-04-30T14:27:12;100768.75;;;17.77
26158;BMP280;67284;44.782;10.282;2023-04-30T14:32:05;100770.41;;;17.78
26158;BMP280;67284;44.782;10.282;2023-04-30T14:36:57;100769.06;;;17.91
26158;BMP280;67284;44.782;10.282;2023-04-30T14:41:50;100757.56;;;17.97
26158;BMP280;67284;44.782;10.282;2023-04-30T14:46:43;100760.00;;;18.01
26158;BMP280;67284;44.782;10.282;2023-04-30T14:51:35;100759.50;;;18.13
26158;BMP280;67284;44.782;10.282;2023-04-30T14:56:27;100752.63;;;18.12
26158;BMP280;67284;44.782;10.282;2023-04-30T15:01:19;100753.41;;;18.14
26158;BMP280;67284;44.782;10.282;2023-04-30T15:06:12;100748.25;;;18.13
26158;BMP280;67284;44.782;10.282;2023-04-30T15:11:04;100753.41;;;18.14
26158;BMP280;67284;44.782;10.282;2023-04-30T15:15:57;100752.53;;;18.15
26158;BMP280;67284;44.782;10.282;2023-04-30T15:20:49;100747.31;;;18.15
26158;BMP280;67284;44.782;10.282;2023-04-30T15:25:41;100756.00;;;18.14
26158;BMP280;67284;44.782;10.282;2023-04-30T15:30:34;100749.09;;;18.13
26158;BMP280;67284;44.782;10.282;2023-04-30T15:35:26;100745.56;;;18.16
26158;BMP280;67284;44.782;10.282;2023-04-30T15:40:18;100738.66;;;18.13
26158;BMP280;67284;44.782;10.282;2023-04-30T15:45:10;100739.03;;;18.04
26158;BMP280;67284;44.782;10.282;2023-04-30T15:50:02;100729.53;;;18.03
26158;BMP280;67284;44.782;10.282;2023-04-30T15:54:54;100736.44;;;18.04
26158;BMP280;67284;44.782;10.282;2023-04-30T15:59:46;100736.44;;;18.04
26158;BMP280;67284;44.782;10.282;2023-04-30T16:04:38;100735.53;;;18.05
26158;BMP280;67284;44.782;10.282;2023-04-30T16:09:30;100741.53;;;18.07
26158;BMP280;67284;44.782;10.282;2023-04-30T16:14:25;100735.41;;;18.08
26158;BMP280;67284;44.782;10.282;2023-04-30T16:19:17;100738.22;;;18.04
26158;BMP280;67284;44.782;10.282;2023-04-30T16:24:09;100732.25;;;18.00
26158;BMP280;67284;44.782;10.282;2023-04-30T16:29:02;100728.50;;;18.07
26158;BMP280;67284;44.782;10.282;2023-04-30T16:33:54;100733.72;;;18.07
26158;BMP280;67284;44.782;10.282;2023-04-30T16:38:46;100731.25;;;18.04
26158;BMP280;67284;44.782;10.282;2023-04-30T16:43:38;100732.13;;;18.03
26158;BMP280;67284;44.782;10.282;2023-04-30T16:48:30;100727.66;;;18.07
26158;BMP280;67284;44.782;10.282;2023-04-30T16:53:22;100733.00;;;18.04
26158;BMP280;67284;44.782;10.282;2023-04-30T16:58:14;100731.25;;;18.04
26158;BMP280;67284;44.782;10.282;2023-04-30T17:03:07;100733.97;;;18.01
26158;BMP280;67284;44.782;10.282;2023-04-30T17:08:00;100731.63;;;17.94
26158;BMP280;67284;44.782;10.282;2023-04-30T17:12:52;100735.28;;;17.90
26158;BMP280;67284;44.782;10.282;2023-04-30T17:17:47;100734.53;;;17.86
26158;BMP280;67284;44.782;10.282;2023-04-30T17:22:39;100745.81;;;17.87
26158;BMP280;67284;44.782;10.282;2023-04-30T17:27:30;100745.97;;;17.82
26158;BMP280;67284;44.782;10.282;2023-04-30T17:32:22;100745.09;;;17.83
26158;BMP280;67284;44.782;10.282;2023-04-30T17:37:16;100749.50;;;17.81
26158;BMP280;67284;44.782;10.282;2023-04-30T17:42:08;100749.56;;;17.80
26158;BMP280;67284;44.782;10.282;2023-04-30T17:47:00;100752.25;;;17.77
26158;BMP280;67284;44.782;10.282;2023-04-30T17:51:52;100757.66;;;17.73
26158;BMP280;67284;44.782;10.282;2023-04-30T17:56:44;100759.47;;;17.71
26158;BMP280;67284;44.782;10.282;2023-04-30T18:01:36;100766.47;;;17.69
26158;BMP280;67284;44.782;10.282;2023-04-30T18:06:28;100759.72;;;17.65
26158;BMP280;67284;44.782;10.282;2023-04-30T18:11:20;100770.13;;;17.65
26158;BMP280;67284;44.782;10.282;2023-04-30T18:16:12;100768.47;;;17.62
26158;BMP280;67284;44.782;10.282;2023-04-30T18:21:04;100777.22;;;17.60
26158;BMP280;67284;44.782;10.282;2023-04-30T18:25:56;100771.19;;;17.59
26158;BMP280;67284;44.782;10.282;2023-04-30T18:30:48;100776.50;;;17.56
26158;BMP280;67284;44.782;10.282;2023-04-30T18:35:40;100770.56;;;17.53
26158;BMP280;67284;44.782;10.282;2023-04-30T18:40:32;100777.59;;;17.51
26158;BMP280;67284;44.782;10.282;2023-04-30T18:45:25;100783.75;;;17.48
26158;BMP280;67284;44.782;10.282;2023-04-30T18:50:17;100782.97;;;17.45
26158;BMP280;67284;44.782;10.282;2023-04-30T18:55:10;100790.00;;;17.43
26158;BMP280;67284;44.782;10.282;2023-04-30T19:00:05;100790.19;;;17.38
26158;BMP280;67284;44.782;10.282;2023-04-30T19:04:58;100793.72;;;17.36
26158;BMP280;67284;44.782;10.282;2023-04-30T19:09:50;100801.66;;;17.33
26158;BMP280;67284;44.782;10.282;2023-04-30T19:14:44;100808.63;;;17.31
26158;BMP280;67284;44.782;10.282;2023-04-30T19:19:36;100815.66;;;17.29
26158;BMP280;67284;44.782;10.282;2023-04-30T19:24:28;100817.41;;;17.28
26158;BMP280;67284;44.782;10.282;2023-04-30T19:29:20;100820.06;;;17.27
26158;BMP280;67284;44.782;10.282;2023-04-30T19:34:12;100821.84;;;17.25
26158;BMP280;67284;44.782;10.282;2023-04-30T19:39:04;100824.56;;;17.22
26158;BMP280;67284;44.782;10.282;2023-04-30T19:44:00;100833.28;;;17.19
26158;BMP280;67284;44.782;10.282;2023-04-30T19:48:52;100838.47;;;17.19
26158;BMP280;67284;44.782;10.282;2023-04-30T19:53:44;100835.94;;;17.18
26158;BMP280;67284;44.782;10.282;2023-04-30T19:58:36;100835.16;;;17.16
26158;BMP280;67284;44.782;10.282;2023-04-30T20:03:27;100840.41;;;17.15
26158;BMP280;67284;44.782;10.282;2023-04-30T20:08:19;100835.31;;;17.12
26158;BMP280;67284;44.782;10.282;2023-04-30T20:13:12;100836.22;;;17.11
26158;BMP280;67284;44.782;10.282;2023-04-30T20:18:04;100841.47;;;17.09
26158;BMP280;67284;44.782;10.282;2023-04-30T20:22:56;100848.44;;;17.07
26158;BMP280;67284;44.782;10.282;2023-04-30T20:27:48;100845.06;;;17.05
26158;BMP280;67284;44.782;10.282;2023-04-30T20:32:40;100844.22;;;17.05
26158;BMP280;67284;44.782;10.282;2023-04-30T20:37:33;100852.06;;;17.03
26158;BMP280;67284;44.782;10.282;2023-04-30T20:42:25;100838.25;;;17.01
26158;BMP280;67284;44.782;10.282;2023-04-30T20:47:17;100841.75;;;17.00
26158;BMP280;67284;44.782;10.282;2023-04-30T20:52:09;100849.53;;;17.00
26158;BMP280;67284;44.782;10.282;2023-04-30T20:57:10;100843.63;;;16.97
26158;BMP280;67284;44.782;10.282;2023-04-30T21:02:03;100839.25;;;16.97
26158;BMP280;67284;44.782;10.282;2023-04-30T21:06:55;100861.88;;;16.95
26158;BMP280;67284;44.782;10.282;2023-04-30T21:11:47;100859.25;;;16.95
26158;BMP280;67284;44.782;10.282;2023-04-30T21:16:39;100858.47;;;16.93
26158;BMP280;67284;44.782;10.282;2023-04-30T21:21:31;100859.38;;;16.92
26158;BMP280;67284;44.782;10.282;2023-04-30T21:26:23;100864.56;;;16.92
26158;BMP280;67284;44.782;10.282;2023-04-30T21:31:15;100862.03;;;16.91
26158;BMP280;67284;44.782;10.282;2023-04-30T21:36:07;100857.75;;;16.88
26158;BMP280;67284;44.782;10.282;2023-04-30T21:40:59;100861.25;;;16.87
26158;BMP280;67284;44.782;10.282;2023-04-30T21:45:51;100870.81;;;16.87
26158;BMP280;67284;44.782;10.282;2023-04-30T21:50:43;100857.88;;;16.85
26158;BMP280;67284;44.782;10.282;2023-04-30T21:55:38;100863.06;;;16.85
26158;BMP280;67284;44.782;10.282;2023-04-30T22:00:29;100863.13;;;16.84
26158;BMP280;67284;44.782;10.282;2023-04-30T22:05:21;100856.22;;;16.83
26158;BMP280;67284;44.782;10.282;2023-04-30T22:10:13;100861.47;;;16.81
26158;BMP280;67284;44.782;10.282;2023-04-30T22:15:06;100855.44;;;16.81
26158;BMP280;67284;44.782;10.282;2023-04-30T22:19:58;100858.09;;;16.79
26158;BMP280;67284;44.782;10.282;2023-04-30T22:24:50;100856.31;;;16.80
26158;BMP280;67284;44.782;10.282;2023-04-30T22:29:43;100854.66;;;16.77
26158;BMP280;67284;44.782;10.282;2023-04-30T22:34:38;100860.75;;;16.76
26158;BMP280;67284;44.782;10.282;2023-04-30T22:39:31;100862.50;;;16.76
26158;BMP280;67284;44.782;10.282;2023-04-30T22:44:23;100864.22;;;16.77
26158;BMP280;67284;44.782;10.282;2023-04-30T22:49:17;100867.75;;;16.74
26158;BMP280;67284;44.782;10.282;2023-04-30T22:54:21;100878.16;;;16.74
26158;BMP280;67284;44.782;10.282;2023-04-30T22:59:14;100865.16;;;16.74
26158;BMP280;67284;44.782;10.282;2023-04-30T23:04:07;100869.53;;;16.74
26158;BMP280;67284;44.782;10.282;2023-04-30T23:09:00;100864.31;;;16.74
26158;BMP280;67284;44.782;10.282;2023-04-30T23:13:52;100861.78;;;16.72
26158;BMP280;67284;44.782;10.282;2023-04-30T23:18:43;100858.31;;;16.72
26158;BMP280;67284;44.782;10.282;2023-04-30T23:23:37;100861.81;;;16.71
26158;BMP280;67284;44.782;10.282;2023-04-30T23:28:29;100866.19;;;16.69
26158;BMP280;67284;44.782;10.282;2023-04-30T23:33:21;100865.47;;;16.66
26158;BMP280;67284;44.782;10.282;2023-04-30T23:38:13;100862.91;;;16.64
26158;BMP280;67284;44.782;10.282;2023-04-30T23:43:06;100864.59;;;16.65
26158;BMP280;67284;44.782;10.282;2023-04-30T23:47:58;100861.22;;;16.63
26158;BMP280;67284;44.782;10.282;2023-04-30T23:52:50;100854.34;;;16.61
26158;BMP280;67284;44.782;10.282;2023-04-30T23:57:42;100849.25;;;16.58
